Time;durP1;ratioP1;P1;durP2;ratioP2;P2;SDS_P1;SDS_P2;PMS_P1;PMS_P2;Temp;Humidity;BMP_temperature;BMP_pressure;BME280_temperature;BME280_humidity;BME280_pressure;Samples;Min_cycle;Max_cycle;Signal;HPM_P1;HPM_P2
2023/08/05 00:00:59;;;;;;;9.82;5.68;;;12.50;99.90;;;;;;4983844;28;20438;-82
2023/08/05 00:03:25;;;;;;;6.68;4.32;;;12.50;99.90;;;;;;5026513;28;20042;-82
2023/08/05 00:05:50;;;;;;;9.10;4.55;;;12.40;99.90;;;;;;4993058;28;20069;-82
2023/08/05 00:08:16;;;;;;;8.95;4.55;;;12.40;99.90;;;;;;4997873;28;20415;-82
2023/08/05 00:10:43;;;;;;;8.95;4.47;;;12.40;99.90;;;;;;5033333;28;20046;-85
2023/08/05 00:13:09;;;;;;;11.85;5.70;;;12.40;99.90;;;;;;5029946;28;20041;-84
2023/08/05 00:15:34;;;;;;;8.35;4.78;;;12.40;99.90;;;;;;5010872;28;20058;-85
2023/08/05 00:18:00;;;;;;;10.73;4.72;;;12.40;99.90;;;;;;5012207;28;20398;-85
2023/08/05 00:20:26;;;;;;;11.45;4.57;;;12.40;99.90;;;;;;5010239;28;20041;-84
2023/08/05 00:22:51;;;;;;;12.80;5.20;;;12.40;99.90;;;;;;5010945;28;20104;-84
2023/08/05 00:25:17;;;;;;;8.55;4.65;;;12.40;99.90;;;;;;5013987;28;20450;-85
2023/08/05 00:27:43;;;;;;;9.85;4.60;;;12.40;99.90;;;;;;4997740;28;20109;-85
2023/08/05 00:30:09;;;;;;;8.30;4.43;;;12.40;99.90;;;;;;4996838;28;20486;-85
2023/08/05 00:32:36;;;;;;;14.18;4.45;;;12.40;99.90;;;;;;4996654;28;20101;-85
2023/08/05 00:35:04;;;;;;;15.05;5.15;;;12.40;99.90;;;;;;4997053;28;20495;-85
2023/08/05 00:37:29;;;;;;;9.27;5.20;;;12.50;99.90;;;;;;4980612;28;20100;-85
2023/08/05 00:39:55;;;;;;;7.32;5.20;;;12.50;99.90;;;;;;4979703;28;20050;-83
2023/08/05 00:42:21;;;;;;;10.48;5.20;;;12.50;99.90;;;;;;5002641;28;20129;-83
2023/08/05 00:44:46;;;;;;;7.43;4.72;;;12.50;99.90;;;;;;5013635;28;20045;-83
2023/08/05 00:47:16;;;;;;;9.20;4.28;;;12.50;99.90;;;;;;4997670;28;20038;-83
2023/08/05 00:49:41;;;;;;;11.32;5.15;;;12.50;99.90;;;;;;5029770;28;20042;-82
2023/08/05 00:52:08;;;;;;;10.35;5.45;;;12.50;99.90;;;;;;5012293;28;20095;-82
2023/08/05 00:54:34;;;;;;;7.95;4.70;;;12.50;99.90;;;;;;5012294;28;20125;-82
2023/08/05 00:57:01;;;;;;;11.32;5.22;;;12.60;99.90;;;;;;4999857;28;20034;-82
2023/08/05 00:59:26;;;;;;;11.10;4.55;;;12.60;99.90;;;;;;4995605;28;20037;-82
2023/08/05 01:01:52;;;;;;;10.65;4.32;;;12.60;99.90;;;;;;4999370;28;20120;-82
2023/08/05 01:04:18;;;;;;;8.10;4.68;;;12.60;99.90;;;;;;4980662;28;20038;-83
2023/08/05 01:06:45;;;;;;;6.97;4.57;;;12.60;99.90;;;;;;4978491;28;20482;-82
2023/08/05 01:09:10;;;;;;;9.70;4.50;;;12.70;99.90;;;;;;4986500;28;20038;-83
2023/08/05 01:11:36;;;;;;;10.55;4.65;;;12.70;99.90;;;;;;5011820;28;20044;-82
2023/08/05 01:14:02;;;;;;;8.57;4.88;;;12.70;99.90;;;;;;5012943;28;20506;-82
2023/08/05 01:16:28;;;;;;;7.75;4.78;;;12.70;99.90;;;;;;4988497;28;20031;-82
2023/08/05 01:18:56;;;;;;;7.80;4.63;;;12.70;99.90;;;;;;5008839;28;20139;-82
2023/08/05 01:21:48;;;;;;;12.18;5.03;;;12.80;99.90;;;;;;4972557;28;20042;-82
2023/08/05 01:24:23;;;;;;;6.95;4.93;;;12.80;99.90;;;;;;5011028;28;20108;-82
2023/08/05 01:26:50;;;;;;;9.43;4.85;;;12.80;99.90;;;;;;4996417;28;20125;-82
2023/08/05 01:29:16;;;;;;;9.55;5.03;;;12.80;99.90;;;;;;4995637;28;20049;-82
2023/08/05 01:31:45;;;;;;;9.02;4.88;;;12.80;99.90;;;;;;5011807;28;20500;-82
2023/08/05 01:34:11;;;;;;;9.85;4.68;;;12.80;99.90;;;;;;5012348;28;20046;-82
2023/08/05 01:36:37;;;;;;;14.13;5.43;;;12.80;99.90;;;;;;5026154;28;20048;-82
2023/08/05 01:39:03;;;;;;;10.32;5.38;;;12.90;99.90;;;;;;5011161;28;20128;-82
2023/08/05 01:41:29;;;;;;;9.35;4.55;;;12.90;99.90;;;;;;5007590;28;20042;-82
2023/08/05 01:43:55;;;;;;;9.95;4.65;;;12.90;99.90;;;;;;4988809;28;20038;-83
2023/08/05 01:46:20;;;;;;;8.57;4.60;;;12.90;99.90;;;;;;4974211;28;20193;-82
2023/08/05 01:48:46;;;;;;;9.70;5.25;;;12.80;99.90;;;;;;4979927;28;20062;-82
2023/08/05 01:51:12;;;;;;;7.03;4.20;;;12.80;99.90;;;;;;4963664;28;20034;-82
2023/08/05 01:53:37;;;;;;;6.55;4.60;;;12.80;99.90;;;;;;4993843;28;20048;-82
2023/08/05 01:56:04;;;;;;;7.60;4.50;;;12.70;99.90;;;;;;4994147;28;20483;-82
2023/08/05 01:58:29;;;;;;;8.50;4.82;;;12.70;99.90;;;;;;4995012;28;20552;-82
2023/08/05 02:00:55;;;;;;;12.05;4.47;;;12.70;99.90;;;;;;5011131;28;20124;-82
2023/08/05 02:03:21;;;;;;;10.85;5.03;;;12.70;99.90;;;;;;5010579;28;20064;-82
2023/08/05 02:05:47;;;;;;;10.27;5.10;;;12.70;99.90;;;;;;4978965;28;20122;-82
2023/08/05 02:08:13;;;;;;;11.27;4.47;;;12.70;99.90;;;;;;5010132;28;20515;-82
2023/08/05 02:10:40;;;;;;;13.15;5.15;;;12.70;99.90;;;;;;4978571;28;20049;-82
2023/08/05 02:13:06;;;;;;;14.05;5.22;;;12.60;99.90;;;;;;5009735;28;20038;-82
2023/08/05 02:15:32;;;;;;;7.63;4.47;;;12.60;99.90;;;;;;4995810;28;20049;-82
2023/08/05 02:17:58;;;;;;;7.63;4.90;;;12.50;99.90;;;;;;4995110;28;20042;-82
2023/08/05 02:20:23;;;;;;;8.82;4.70;;;12.50;99.90;;;;;;4995158;28;20403;-82
2023/08/05 02:22:49;;;;;;;9.30;4.47;;;12.50;99.90;;;;;;5010723;28;20045;-82
2023/08/05 02:25:15;;;;;;;8.68;4.15;;;12.40;99.90;;;;;;5010687;28;20081;-82
2023/08/05 02:27:40;;;;;;;6.78;4.35;;;12.30;99.90;;;;;;5011196;28;20042;-82
2023/08/05 02:30:08;;;;;;;10.57;4.80;;;12.30;99.90;;;;;;5010921;28;20455;-82
2023/08/05 02:32:34;;;;;;;9.05;4.95;;;12.20;99.90;;;;;;4993799;28;20174;-82
2023/08/05 02:34:59;;;;;;;12.70;4.70;;;12.20;99.90;;;;;;5027106;28;20077;-82
2023/08/05 02:37:25;;;;;;;9.95;4.93;;;12.10;99.90;;;;;;4994511;28;20501;-82
2023/08/05 02:39:51;;;;;;;15.65;5.53;;;12.10;99.90;;;;;;5009683;28;20038;-82
2023/08/05 02:42:17;;;;;;;9.02;4.95;;;12.10;99.90;;;;;;4977775;28;20038;-82
2023/08/05 02:44:42;;;;;;;8.52;5.03;;;12.10;99.90;;;;;;5010049;28;20049;-84
2023/08/05 02:47:08;;;;;;;10.43;4.88;;;12.00;99.90;;;;;;5025745;28;20407;-82
2023/08/05 02:49:34;;;;;;;8.77;4.53;;;12.00;99.90;;;;;;4961359;28;20070;-82
2023/08/05 02:52:00;;;;;;;7.40;4.97;;;12.00;99.90;;;;;;4958684;28;20038;-82
2023/08/05 02:54:25;;;;;;;8.75;4.95;;;11.90;99.90;;;;;;4957667;28;20034;-81
2023/08/05 02:56:51;;;;;;;9.45;5.53;;;11.90;99.90;;;;;;4941301;28;20034;-82
2023/08/05 02:59:17;;;;;;;9.52;5.20;;;11.90;99.90;;;;;;4973577;28;20049;-84
2023/08/05 03:01:42;;;;;;;9.75;4.97;;;11.90;99.90;;;;;;4974305;28;20049;-85
2023/08/05 03:04:08;;;;;;;12.00;6.32;;;11.90;99.90;;;;;;4974579;28;20038;-83
2023/08/05 03:06:34;;;;;;;8.52;5.82;;;11.90;99.90;;;;;;4962151;28;20404;-83
2023/08/05 03:09:00;;;;;;;9.98;6.43;;;11.80;99.90;;;;;;4958286;28;20042;-83
2023/08/05 03:11:30;;;;;;;11.85;6.50;;;11.90;99.90;;;;;;4988489;28;20046;-81
2023/08/05 03:13:55;;;;;;;9.85;6.10;;;11.90;99.90;;;;;;4953462;28;20042;-82
2023/08/05 03:16:21;;;;;;;10.40;6.00;;;11.80;99.90;;;;;;4956995;28;20046;-82
2023/08/05 03:18:47;;;;;;;10.77;6.15;;;11.90;99.90;;;;;;4941618;28;20042;-82
2023/08/05 03:21:12;;;;;;;11.25;6.22;;;11.80;99.90;;;;;;4957725;28;20038;-82
2023/08/05 03:23:38;;;;;;;9.90;6.18;;;11.80;99.90;;;;;;4941999;28;20042;-82
2023/08/05 03:26:04;;;;;;;11.02;6.00;;;11.80;99.90;;;;;;4974138;28;20038;-82
2023/08/05 03:28:29;;;;;;;15.70;7.13;;;11.80;99.90;;;;;;4975026;28;20049;-82
2023/08/05 03:30:55;;;;;;;12.63;6.65;;;11.80;99.90;;;;;;4973300;28;20030;-82
2023/08/05 03:33:21;;;;;;;11.68;6.05;;;11.70;99.90;;;;;;4959229;28;20034;-82
2023/08/05 03:35:46;;;;;;;13.80;6.88;;;11.70;99.90;;;;;;4958114;28;20038;-82
2023/08/05 03:38:12;;;;;;;9.38;6.50;;;11.60;99.90;;;;;;4973670;28;20077;-82
2023/08/05 03:40:38;;;;;;;11.77;6.15;;;11.60;99.90;;;;;;4923492;28;20042;-81
2023/08/05 03:43:03;;;;;;;11.25;6.30;;;11.60;99.90;;;;;;4975290;28;20042;-82
2023/08/05 03:45:29;;;;;;;11.70;6.70;;;11.60;99.90;;;;;;4960913;28;20555;-81
2023/08/05 03:47:55;;;;;;;10.63;6.68;;;11.60;99.90;;;;;;4983447;28;20047;-81
2023/08/05 03:50:21;;;;;;;13.98;6.75;;;11.60;99.90;;;;;;4993549;28;20069;-81
2023/08/05 03:52:50;;;;;;;12.55;6.35;;;11.60;99.90;;;;;;4993111;28;20038;-81
2023/08/05 03:55:16;;;;;;;15.10;7.03;;;11.50;99.90;;;;;;4977773;28;20041;-82
2023/08/05 03:57:42;;;;;;;12.98;6.05;;;11.50;99.90;;;;;;4961414;28;20062;-81
2023/08/05 04:00:11;;;;;;;9.55;6.10;;;11.50;99.90;;;;;;4994183;28;20073;-82
2023/08/05 04:02:37;;;;;;;11.82;6.60;;;11.60;99.90;;;;;;4977792;28;20450;-81
2023/08/05 04:05:04;;;;;;;10.38;5.97;;;11.60;99.90;;;;;;4994417;28;20093;-82
2023/08/05 04:07:33;;;;;;;11.30;6.10;;;11.60;99.90;;;;;;4976508;28;20125;-82
2023/08/05 04:09:59;;;;;;;16.88;6.57;;;11.60;99.90;;;;;;4990729;28;20043;-81
2023/08/05 04:12:26;;;;;;;9.15;5.80;;;11.60;99.90;;;;;;4992868;28;20042;-81
2023/08/05 04:14:52;;;;;;;9.43;5.97;;;11.70;99.90;;;;;;4993342;28;20369;-82
2023/08/05 04:17:20;;;;;;;11.95;6.22;;;11.70;99.90;;;;;;4994170;28;20034;-81
2023/08/05 04:19:47;;;;;;;14.70;6.20;;;11.80;99.90;;;;;;4977159;28;20042;-81
2023/08/05 04:22:16;;;;;;;8.13;4.65;;;11.80;99.90;;;;;;4993386;28;20121;-81
2023/08/05 04:24:44;;;;;;;8.55;4.82;;;11.80;99.90;;;;;;4976909;28;20096;-82
2023/08/05 04:27:10;;;;;;;10.02;5.22;;;11.90;99.90;;;;;;4962042;28;20492;-81
2023/08/05 04:29:36;;;;;;;8.95;5.03;;;11.90;99.90;;;;;;5010697;28;20077;-81
2023/08/05 04:32:02;;;;;;;9.43;4.90;;;11.90;99.90;;;;;;4976431;28;20084;-82
2023/08/05 04:34:31;;;;;;;7.57;4.93;;;11.90;99.90;;;;;;4976406;28;20042;-81
2023/08/05 04:36:57;;;;;;;8.80;5.22;;;11.90;99.90;;;;;;4977657;28;20087;-82
2023/08/05 04:39:23;;;;;;;7.13;4.93;;;12.00;99.90;;;;;;4992554;28;20077;-81
2023/08/05 04:41:48;;;;;;;9.68;5.45;;;12.00;99.90;;;;;;4959698;28;20047;-81
2023/08/05 04:44:14;;;;;;;8.75;5.95;;;12.00;99.90;;;;;;4994080;28;20046;-81
2023/08/05 04:46:40;;;;;;;10.88;5.80;;;12.00;99.90;;;;;;4977895;28;20392;-82
2023/08/05 04:49:08;;;;;;;8.63;5.18;;;12.10;99.90;;;;;;4991771;28;20050;-82
2023/08/05 04:51:37;;;;;;;11.88;5.57;;;12.10;99.90;;;;;;4976433;28;20042;-82
2023/08/05 04:54:04;;;;;;;10.70;5.22;;;12.10;99.90;;;;;;4992587;28;20042;-82
2023/08/05 04:56:30;;;;;;;8.18;5.25;;;12.10;99.90;;;;;;4976504;28;20097;-82
2023/08/05 04:58:56;;;;;;;13.98;5.28;;;12.10;99.90;;;;;;4994054;28;20050;-82
2023/08/05 05:01:22;;;;;;;9.23;4.70;;;12.10;99.90;;;;;;5007432;28;20447;-82
2023/08/05 05:03:49;;;;;;;9.35;5.75;;;12.20;99.90;;;;;;4975892;28;20129;-81
2023/08/05 05:06:14;;;;;;;8.13;5.07;;;12.20;99.90;;;;;;4976424;28;20038;-82
2023/08/05 05:08:40;;;;;;;8.07;5.07;;;12.20;99.90;;;;;;4991712;28;20089;-81
2023/08/05 05:11:07;;;;;;;12.20;5.25;;;12.20;99.90;;;;;;4991061;28;20058;-81
2023/08/05 05:13:33;;;;;;;14.52;5.40;;;12.20;99.90;;;;;;4992866;28;20042;-81
2023/08/05 05:16:02;;;;;;;8.38;5.00;;;12.20;99.90;;;;;;4980763;28;20038;-82
2023/08/05 05:18:28;;;;;;;9.43;4.78;;;12.20;99.90;;;;;;4976186;28;20518;-82
2023/08/05 05:20:54;;;;;;;9.18;4.95;;;12.30;99.90;;;;;;4991664;28;20129;-81
2023/08/05 05:23:20;;;;;;;15.20;5.53;;;12.30;99.90;;;;;;4957331;28;20121;-81
2023/08/05 05:25:46;;;;;;;13.00;4.75;;;12.30;99.90;;;;;;4991727;28;20042;-82
2023/08/05 05:28:12;;;;;;;8.93;5.18;;;12.40;99.90;;;;;;4976635;28;20042;-82
2023/08/05 05:30:38;;;;;;;9.18;5.25;;;12.40;99.90;;;;;;4960364;28;20081;-82
2023/08/05 05:33:04;;;;;;;10.90;5.15;;;12.50;99.90;;;;;;4938736;28;20133;-82
2023/08/05 05:35:30;;;;;;;11.25;5.38;;;12.60;99.90;;;;;;4972727;28;20034;-82
2023/08/05 05:37:55;;;;;;;11.00;5.93;;;12.60;99.90;;;;;;4971949;28;20391;-82
2023/08/05 05:40:21;;;;;;;10.40;6.68;;;12.70;99.90;;;;;;4953552;28;20078;-82
2023/08/05 05:42:49;;;;;;;12.45;6.88;;;12.80;99.90;;;;;;4990755;28;20077;-85
2023/08/05 05:45:15;;;;;;;14.48;8.00;;;12.90;99.90;;;;;;4989399;28;20049;-82
2023/08/05 05:47:41;;;;;;;12.77;6.65;;;13.00;99.90;;;;;;4960363;28;20791;-83
2023/08/05 05:50:07;;;;;;;11.65;6.47;;;13.10;99.90;;;;;;4988806;28;20125;-83
2023/08/05 05:52:34;;;;;;;11.27;6.00;;;13.20;99.90;;;;;;4990227;28;20081;-83
2023/08/05 05:55:00;;;;;;;7.88;5.38;;;13.50;99.90;;;;;;4956590;28;20476;-84
2023/08/05 05:57:25;;;;;;;10.25;5.25;;;13.40;99.90;;;;;;4970550;28;20487;-84
2023/08/05 05:59:51;;;;;;;11.20;5.05;;;13.50;99.90;;;;;;4992683;28;20130;-84
2023/08/05 06:02:17;;;;;;;11.05;5.10;;;13.50;99.90;;;;;;4990452;28;20043;-84
2023/08/05 06:04:44;;;;;;;7.80;4.68;;;13.60;99.90;;;;;;4959829;28;20053;-84
2023/08/05 06:07:10;;;;;;;8.40;4.53;;;13.60;99.90;;;;;;4975633;28;20050;-84
2023/08/05 06:09:35;;;;;;;5.45;4.25;;;13.60;99.90;;;;;;4991654;28;20038;-84
2023/08/05 06:12:01;;;;;;;8.75;5.55;;;13.70;99.90;;;;;;4975396;28;20109;-83
2023/08/05 06:14:28;;;;;;;9.43;5.20;;;13.70;99.90;;;;;;4976491;28;20077;-84
2023/08/05 06:16:54;;;;;;;8.65;5.78;;;13.80;99.90;;;;;;4974601;28;20407;-84
2023/08/05 06:19:20;;;;;;;9.98;5.22;;;13.90;99.90;;;;;;4992383;28;20034;-84
2023/08/05 06:21:46;;;;;;;9.80;5.45;;;14.00;99.90;;;;;;4991065;28;20042;-84
2023/08/05 06:24:12;;;;;;;10.25;5.80;;;14.10;99.90;;;;;;4992015;28;20042;-85
2023/08/05 06:26:38;;;;;;;9.57;6.15;;;14.20;99.90;;;;;;4991059;28;20049;-84
2023/08/05 06:29:05;;;;;;;12.15;6.43;;;14.30;99.90;;;;;;4975618;28;20415;-85
2023/08/05 06:31:30;;;;;;;9.73;6.30;;;14.50;99.90;;;;;;4991600;28;20129;-85
2023/08/05 06:33:57;;;;;;;10.82;5.65;;;14.60;99.90;;;;;;4991879;28;20137;-85
2023/08/05 06:36:23;;;;;;;10.82;6.50;;;14.70;99.90;;;;;;4974894;28;20520;-85
2023/08/05 06:38:48;;;;;;;13.02;6.55;;;14.70;99.90;;;;;;4975694;28;20126;-85
2023/08/05 06:41:14;;;;;;;10.48;6.03;;;14.80;99.90;;;;;;5007305;28;20050;-85
2023/08/05 06:43:39;;;;;;;8.43;5.95;;;14.80;99.90;;;;;;5008347;28;20070;-85
2023/08/05 06:46:05;;;;;;;10.10;5.70;;;14.90;99.90;;;;;;4955053;28;20038;-82
2023/08/05 06:48:31;;;;;;;8.52;5.85;;;15.00;99.90;;;;;;4956267;28;20571;-82
2023/08/05 06:50:58;;;;;;;7.68;5.55;;;15.10;99.90;;;;;;4968560;28;20042;-82
2023/08/05 06:53:24;;;;;;;6.93;4.88;;;15.20;99.90;;;;;;4984706;28;20046;-81
2023/08/05 06:56:02;;;;;;;6.65;4.00;;;15.30;99.90;;;;;;4968569;28;20118;-81
2023/08/05 06:58:28;;;;;;;6.47;3.70;;;15.40;99.90;;;;;;4975279;28;20074;-81
2023/08/05 07:00:55;;;;;;;5.93;3.97;;;15.50;99.90;;;;;;4956797;28;20460;-79
2023/08/05 07:03:21;;;;;;;7.65;3.65;;;15.60;99.90;;;;;;4971267;28;20447;-79
2023/08/05 07:05:48;;;;;;;9.48;4.00;;;15.70;99.90;;;;;;4956124;28;20042;-79
2023/08/05 07:08:14;;;;;;;5.68;2.97;;;15.80;99.90;;;;;;4988436;28;20044;-79
2023/08/05 07:10:39;;;;;;;5.25;3.20;;;15.80;99.90;;;;;;4968470;28;20034;-79
2023/08/05 07:13:06;;;;;;;10.73;3.30;;;15.90;99.90;;;;;;4932577;28;20435;-80
2023/08/05 07:15:36;;;;;;;7.15;3.38;;;15.90;99.90;;;;;;4968931;28;20053;-80
2023/08/05 07:18:03;;;;;;;6.18;3.00;;;16.00;99.90;;;;;;4966672;28;20042;-80
2023/08/05 07:20:29;;;;;;;5.20;3.08;;;16.00;99.90;;;;;;4984919;28;20459;-80
2023/08/05 07:22:54;;;;;;;5.25;2.70;;;16.00;99.90;;;;;;4967121;28;20073;-80
2023/08/05 07:25:20;;;;;;;10.57;3.17;;;16.00;99.90;;;;;;4934144;28;20069;-80
2023/08/05 07:27:46;;;;;;;10.23;3.63;;;16.00;99.90;;;;;;4970951;28;20403;-80
2023/08/05 07:30:11;;;;;;;5.63;3.25;;;16.10;99.90;;;;;;4987229;28;20034;-79
2023/08/05 07:32:37;;;;;;;7.85;2.67;;;16.10;99.90;;;;;;4987000;28;20050;-80
2023/08/05 07:35:03;;;;;;;4.97;2.60;;;16.00;99.90;;;;;;4950414;28;20544;-81
2023/08/05 07:37:31;;;;;;;5.82;3.30;;;16.10;99.90;;;;;;4989072;28;20069;-80
2023/08/05 07:39:57;;;;;;;4.20;2.85;;;16.20;99.90;;;;;;4990468;28;20047;-80
2023/08/05 07:42:25;;;;;;;7.05;3.00;;;16.20;99.90;;;;;;4973274;28;20049;-80
2023/08/05 07:44:52;;;;;;;7.13;3.10;;;16.40;99.90;;;;;;4982711;28;20089;-80
2023/08/05 07:47:18;;;;;;;4.32;2.55;;;16.60;99.90;;;;;;4970086;28;20052;-80
2023/08/05 07:49:44;;;;;;;7.25;2.72;;;16.70;99.90;;;;;;4976802;28;20042;-80
2023/08/05 07:52:10;;;;;;;3.67;2.30;;;16.90;99.90;;;;;;4978500;28;20495;-80
2023/08/05 07:54:36;;;;;;;4.55;2.72;;;16.90;99.90;;;;;;4941173;28;20076;-81
2023/08/05 07:57:02;;;;;;;4.20;2.72;;;16.90;99.90;;;;;;4973805;28;20054;-81
2023/08/05 07:59:30;;;;;;;4.57;2.72;;;17.00;99.90;;;;;;4990230;28;20038;-81
2023/08/05 08:01:57;;;;;;;3.60;2.40;;;17.10;99.90;;;;;;4987383;28;20089;-80
2023/08/05 08:04:23;;;;;;;7.65;2.70;;;17.20;99.90;;;;;;4955208;28;20038;-80
2023/08/05 08:06:48;;;;;;;5.65;2.90;;;17.30;99.90;;;;;;4989203;28;20407;-80
2023/08/05 08:09:14;;;;;;;5.07;2.85;;;17.30;99.90;;;;;;4973163;28;20089;-80
2023/08/05 08:11:40;;;;;;;5.53;3.00;;;17.40;99.90;;;;;;4989543;28;20149;-80
2023/08/05 08:14:06;;;;;;;5.32;2.83;;;17.50;99.90;;;;;;4942895;28;20491;-80
2023/08/05 08:16:32;;;;;;;5.13;2.70;;;17.50;99.90;;;;;;4990878;28;20046;-80
2023/08/05 08:18:58;;;;;;;4.00;2.67;;;17.60;99.90;;;;;;4961391;28;20177;-81
2023/08/05 08:21:24;;;;;;;5.45;2.85;;;17.70;99.90;;;;;;4958979;28;20181;-80
2023/08/05 08:23:49;;;;;;;4.25;2.10;;;17.70;99.90;;;;;;4973147;28;20112;-81
2023/08/05 08:26:15;;;;;;;3.45;2.58;;;17.80;99.90;;;;;;4957393;28;20048;-81
2023/08/05 08:28:41;;;;;;;20.80;6.97;;;17.80;99.90;;;;;;4990823;28;20128;-85
2023/08/05 08:31:06;;;;;;;11.43;4.90;;;17.80;99.90;;;;;;5008224;28;20146;-85
2023/08/05 08:33:32;;;;;;;6.60;2.38;;;17.80;99.90;;;;;;4978356;28;20070;-85
2023/08/05 08:35:58;;;;;;;6.47;3.10;;;17.90;99.90;;;;;;4994470;28;20510;-85
2023/08/05 08:38:23;;;;;;;3.72;2.63;;;18.10;99.90;;;;;;4977432;28;20160;-85
2023/08/05 08:40:51;;;;;;;4.10;2.30;;;18.30;99.90;;;;;;5007236;28;20096;-85
2023/08/05 08:43:18;;;;;;;5.07;2.55;;;18.40;99.90;;;;;;4994415;28;20057;-85
2023/08/05 08:45:47;;;;;;;3.97;1.77;;;18.50;99.90;;;;;;4978021;28;20038;-85
2023/08/05 08:48:14;;;;;;;3.92;2.30;;;18.40;99.90;;;;;;4991800;28;20047;-85
2023/08/05 08:50:40;;;;;;;3.95;2.13;;;18.40;99.90;;;;;;5008493;28;20049;-84
2023/08/05 08:53:10;;;;;;;5.65;2.33;;;18.30;99.90;;;;;;5013628;28;20046;-85
2023/08/05 08:55:40;;;;;;;4.85;2.72;;;18.30;99.90;;;;;;4996515;28;20045;-85
2023/08/05 08:58:06;;;;;;;3.58;2.28;;;18.30;99.90;;;;;;4989339;28;20026;-85
2023/08/05 09:00:33;;;;;;;4.78;2.40;;;18.30;99.90;;;;;;5013874;28;20091;-85
2023/08/05 09:03:03;;;;;;;9.15;2.40;;;18.30;99.90;;;;;;5012123;28;20065;-85
2023/08/05 09:05:41;;;;;;;5.38;2.40;;;18.40;99.90;;;;;;5013349;28;20477;-85
2023/08/05 09:08:07;;;;;;;4.53;2.10;;;18.50;99.90;;;;;;5008226;28;20558;-85
2023/08/05 09:10:33;;;;;;;6.82;2.75;;;18.60;99.90;;;;;;5026329;28;20042;-86
2023/08/05 09:13:00;;;;;;;4.45;2.42;;;18.80;99.90;;;;;;5002679;28;20042;-85
2023/08/05 09:15:33;;;;;;;4.20;2.78;;;19.10;99.90;;;;;;5027882;28;20041;-85
2023/08/05 09:18:00;;;;;;;4.30;2.50;;;19.30;99.90;;;;;;5009641;28;20049;-85
2023/08/05 09:20:26;;;;;;;6.72;2.83;;;19.40;99.90;;;;;;4991447;28;20460;-85
2023/08/05 09:22:56;;;;;;;8.90;3.70;;;19.60;99.90;;;;;;4993287;28;20521;-84
2023/08/05 09:25:23;;;;;;;3.88;2.25;;;19.70;99.90;;;;;;4991797;28;20057;-84
2023/08/05 09:27:52;;;;;;;7.18;2.65;;;19.70;99.90;;;;;;4992533;28;20099;-85
2023/08/05 09:30:20;;;;;;;2.50;2.13;;;19.70;99.90;;;;;;5008068;28;20041;-85
2023/08/05 09:32:46;;;;;;;17.95;3.03;;;19.80;99.90;;;;;;4990913;28;20045;-85
2023/08/05 09:35:13;;;;;;;5.35;2.45;;;19.70;99.90;;;;;;4992812;28;20371;-85
2023/08/05 09:37:48;;;;;;;4.00;2.20;;;19.70;99.90;;;;;;4993006;28;20038;-84
2023/08/05 09:40:25;;;;;;;4.35;2.50;;;19.70;99.90;;;;;;5020559;28;20099;-85
2023/08/05 09:42:54;;;;;;;4.25;2.63;;;19.70;99.90;;;;;;4991950;28;20179;-84
2023/08/05 09:45:21;;;;;;;4.10;2.42;;;19.60;99.90;;;;;;5006720;28;20512;-84
2023/08/05 09:47:49;;;;;;;4.05;2.40;;;19.50;99.90;;;;;;4976782;28;20115;-84
2023/08/05 09:50:16;;;;;;;5.13;2.05;;;19.50;99.90;;;;;;5007944;28;20137;-84
2023/08/05 09:52:43;;;;;;;7.85;2.97;;;19.50;99.90;;;;;;5007920;28;20038;-84
2023/08/05 09:55:14;;;;;;;3.22;2.15;;;19.40;99.90;;;;;;4991699;28;20103;-83
2023/08/05 09:57:41;;;;;;;4.07;2.22;;;19.40;99.90;;;;;;4991198;28;20041;-84
2023/08/05 10:00:12;;;;;;;2.60;1.77;;;19.40;99.90;;;;;;5024830;28;20502;-84
2023/08/05 10:02:43;;;;;;;4.82;2.35;;;19.40;99.90;;;;;;4959428;28;20053;-83
2023/08/05 10:05:10;;;;;;;3.73;2.43;;;19.50;99.90;;;;;;4990440;28;20092;-83
2023/08/05 10:07:40;;;;;;;3.92;2.30;;;19.60;99.90;;;;;;5006096;28;20050;-84
2023/08/05 10:10:19;;;;;;;7.75;2.30;;;19.80;99.90;;;;;;4992480;28;20038;-84
2023/08/05 10:13:03;;;;;;;2.75;1.73;;;20.00;99.90;;;;;;4991429;28;20065;-85
2023/08/05 10:15:31;;;;;;;2.97;2.20;;;20.20;99.90;;;;;;5023035;28;20407;-82
2023/08/05 10:17:57;;;;;;;2.67;1.98;;;20.30;99.90;;;;;;4987065;28;20030;-83
2023/08/05 10:20:23;;;;;;;4.18;1.83;;;20.20;99.90;;;;;;5004344;28;20456;-83
2023/08/05 10:23:09;;;;;;;3.28;1.98;;;20.10;99.90;;;;;;5007802;28;20541;-83
2023/08/05 10:25:46;;;;;;;4.38;2.30;;;20.00;99.90;;;;;;5003550;28;20084;-83
2023/08/05 10:28:25;;;;;;;5.72;2.40;;;19.90;99.90;;;;;;4990249;28;20077;-85
2023/08/05 10:30:53;;;;;;;5.00;2.53;;;20.00;99.90;;;;;;4991492;28;20042;-84
2023/08/05 10:33:19;;;;;;;8.07;3.03;;;20.00;99.90;;;;;;5007750;28;20438;-83
2023/08/05 10:35:46;;;;;;;3.42;2.58;;;20.00;99.90;;;;;;4976329;28;20126;-83
2023/08/05 10:38:22;;;;;;;3.85;2.80;;;20.20;99.90;;;;;;4990615;28;20042;-85
2023/08/05 10:41:03;;;;;;;4.50;2.63;;;20.50;99.90;;;;;;5006471;28;20057;-85
2023/08/05 10:43:31;;;;;;;5.25;3.00;;;20.70;99.90;;;;;;5000411;28;20052;-79
2023/08/05 10:46:06;;;;;;;3.85;2.65;;;20.80;99.90;;;;;;4988383;28;20042;-80
2023/08/05 10:48:40;;;;;;;4.80;2.50;;;20.80;99.90;;;;;;4990717;28;20657;-80
2023/08/05 10:51:22;;;;;;;2.83;2.40;;;21.00;99.90;;;;;;5006159;28;20044;-80
2023/08/05 10:53:59;;;;;;;3.35;2.50;;;21.20;99.90;;;;;;4974425;28;20442;-79
2023/08/05 10:56:32;;;;;;;4.43;2.50;;;21.50;99.90;;;;;;4989798;28;20037;-79
2023/08/05 10:59:02;;;;;;;7.10;2.60;;;21.60;99.90;;;;;;4991459;28;21095;-80
2023/08/05 11:01:56;;;;;;;4.53;2.40;;;21.70;99.90;;;;;;4975829;28;20077;-80
2023/08/05 11:04:31;;;;;;;4.22;2.35;;;21.60;99.90;;;;;;5003038;28;20100;-82
2023/08/05 11:07:00;;;;;;;2.78;2.45;;;21.60;99.90;;;;;;5006016;28;20470;-79
2023/08/05 11:09:26;;;;;;;3.78;2.60;;;21.60;99.90;;;;;;4990310;28;20038;-78
2023/08/05 11:11:52;;;;;;;4.30;2.53;;;21.70;99.90;;;;;;4989512;28;20038;-78
2023/08/05 11:14:19;;;;;;;3.20;2.67;;;21.60;99.90;;;;;;4977714;28;20061;-80
2023/08/05 11:16:48;;;;;;;4.43;2.92;;;21.60;99.90;;;;;;4990689;28;20052;-82
2023/08/05 11:19:15;;;;;;;4.18;2.90;;;21.60;99.90;;;;;;5001956;28;20044;-79
2023/08/05 11:21:44;;;;;;;4.55;3.35;;;21.70;99.90;;;;;;4988978;28;20042;-79
2023/08/05 11:24:17;;;;;;;4.88;3.47;;;21.70;99.90;;;;;;5007602;28;20564;-75
2023/08/05 11:26:43;;;;;;;8.10;5.10;;;21.70;99.90;;;;;;5007612;28;20422;-82
2023/08/05 11:29:09;;;;;;;8.35;4.68;;;21.70;99.90;;;;;;4969377;28;20034;-78
2023/08/05 11:31:35;;;;;;;5.95;4.40;;;21.70;99.90;;;;;;4988741;28;20042;-79
2023/08/05 11:34:01;;;;;;;7.25;4.80;;;21.60;99.90;;;;;;4973386;28;20558;-79
2023/08/05 11:36:28;;;;;;;6.45;5.20;;;21.40;99.90;;;;;;4988104;28;20042;-79
2023/08/05 11:38:59;;;;;;;5.90;4.38;;;21.40;99.90;;;;;;4990584;28;20050;-80
2023/08/05 11:41:27;;;;;;;7.93;5.18;;;21.30;99.90;;;;;;4986415;28;20101;-80
2023/08/05 11:43:54;;;;;;;8.57;6.00;;;21.20;99.90;;;;;;5005010;28;20044;-80
2023/08/05 11:46:30;;;;;;;6.30;5.30;;;21.00;99.90;;;;;;4987599;28;20037;-79
2023/08/05 11:49:14;;;;;;;8.40;6.13;;;21.00;99.90;;;;;;4974025;28;20499;-76
2023/08/05 11:51:48;;;;;;;8.05;5.80;;;20.90;99.90;;;;;;5006333;28;20898;-76
2023/08/05 11:54:47;;;;;;;9.23;5.93;;;20.90;99.90;;;;;;4994535;28;20049;-76
2023/08/05 11:57:19;;;;;;;6.60;5.05;;;21.00;99.90;;;;;;4970437;28;20121;-77
2023/08/05 11:59:46;;;;;;;6.85;4.80;;;21.10;99.90;;;;;;5004601;28;20045;-77
2023/08/05 12:02:14;;;;;;;7.90;4.85;;;21.20;99.90;;;;;;4986942;28;20042;-78
2023/08/05 12:04:50;;;;;;;6.28;4.53;;;21.20;99.90;;;;;;4990365;28;20049;-77
2023/08/05 12:07:17;;;;;;;7.72;4.28;;;21.20;99.90;;;;;;4987572;28;20037;-75
2023/08/05 12:09:43;;;;;;;9.40;5.22;;;21.20;99.90;;;;;;4997357;28;20042;-80
2023/08/05 12:12:14;;;;;;;5.65;4.82;;;21.10;99.90;;;;;;5010302;28;20060;-75
2023/08/05 12:14:40;;;;;;;6.75;5.53;;;21.10;99.90;;;;;;5010476;28;20056;-75
2023/08/05 12:17:06;;;;;;;6.93;5.20;;;20.90;99.90;;;;;;4993440;28;20029;-81
2023/08/05 12:19:31;;;;;;;10.02;7.47;;;21.00;99.90;;;;;;4991757;28;20046;-76
2023/08/05 12:21:57;;;;;;;6.50;5.65;;;20.80;99.90;;;;;;5003413;28;20069;-77
2023/08/05 12:24:22;;;;;;;6.90;5.55;;;20.80;99.90;;;;;;4991800;28;20137;-79
2023/08/05 12:26:48;;;;;;;7.07;5.97;;;20.70;99.90;;;;;;5010222;28;20049;-79
2023/08/05 12:29:14;;;;;;;7.18;5.30;;;20.50;99.90;;;;;;5008053;28;20514;-82
2023/08/05 12:31:40;;;;;;;6.82;5.45;;;20.40;99.90;;;;;;5007771;28;20207;-78
2023/08/05 12:34:06;;;;;;;7.07;5.63;;;20.50;99.90;;;;;;5008878;28;20558;-74
2023/08/05 12:36:31;;;;;;;7.05;4.95;;;20.40;99.90;;;;;;4992279;28;20100;-79
2023/08/05 12:38:58;;;;;;;6.10;4.97;;;20.40;99.90;;;;;;4993338;28;20085;-80
2023/08/05 12:41:23;;;;;;;7.05;4.82;;;20.40;99.90;;;;;;5004177;28;20518;-78
2023/08/05 12:43:49;;;;;;;5.15;4.38;;;20.40;99.90;;;;;;4977325;28;20038;-78